sensor_id;sensor_type;location;lat;lon;timestamp;P1;durP1;ratioP1;P2;durP2;ratioP2
215;SDS011;70668;48.81286795;9.14184224;2024-01-30T00:00:57;19.67;;;10.43;;
215;SDS011;70668;48.81286795;9.14184224;2024-01-30T00:03:26;24.20;;;10.90;;
215;SDS011;70668;48.81286795;9.14184224;2024-01-30T00:05:55;24.30;;;11.38;;
215;SDS011;70668;48.81286795;9.14184224;2024-01-30T00:08:23;22.67;;;11.20;;
215;SDS011;70668;48.81286795;9.14184224;2024-01-30T00:10:52;26.00;;;11.02;;
215;SDS011;70668;48.81286795;9.14184224;2024-01-30T00:13:23;21.58;;;10.38;;
215;SDS011;70668;48.81286795;9.14184224;2024-01-30T00:15:51;24.85;;;11.20;;
215;SDS011;70668;48.81286795;9.14184224;2024-01-30T00:18:20;22.30;;;10.50;;
215;SDS011;70668;48.81286795;9.14184224;2024-01-30T00:20:48;20.33;;;10.10;;
215;SDS011;70668;48.81286795;9.14184224;2024-01-30T00:23:16;25.13;;;9.40;;
215;SDS011;70668;48.81286795;9.14184224;2024-01-30T00:25:45;20.48;;;10.45;;
215;SDS011;70668;48.81286795;9.14184224;2024-01-30T00:28:13;19.45;;;9.43;;
215;SDS011;70668;48.81286795;9.14184224;2024-01-30T00:30:44;18.90;;;9.27;;
215;SDS011;70668;48.81286795;9.14184224;2024-01-30T00:33:13;18.45;;;9.68;;
215;SDS011;70668;48.81286795;9.14184224;2024-01-30T00:35:41;22.90;;;9.85;;
215;SDS011;70668;48.81286795;9.14184224;2024-01-30T00:38:10;21.00;;;9.05;;
215;SDS011;70668;48.81286795;9.14184224;2024-01-30T00:40:39;16.92;;;8.98;;
215;SDS011;70668;48.81286795;9.14184224;2024-01-30T00:43:07;18.95;;;8.90;;
215;SDS011;70668;48.81286795;9.14184224;2024-01-30T00:45:35;16.45;;;8.77;;
215;SDS011;70668;48.81286795;9.14184224;2024-01-30T00:48:07;16.75;;;8.43;;
215;SDS011;70668;48.81286795;9.14184224;2024-01-30T00:50:35;17.63;;;8.90;;
215;SDS011;70668;48.81286795;9.14184224;2024-01-30T00:53:04;23.17;;;9.15;;
215;SDS011;70668;48.81286795;9.14184224;2024-01-30T00:55:32;16.95;;;9.00;;
215;SDS011;70668;48.81286795;9.14184224;2024-01-30T00:58:00;15.68;;;8.02;;
215;SDS011;70668;48.81286795;9.14184224;2024-01-30T01:00:29;17.15;;;8.15;;
215;SDS011;70668;48.81286795;9.14184224;2024-01-30T01:02:58;14.65;;;7.97;;
215;SDS011;70668;48.81286795;9.14184224;2024-01-30T01:05:29;19.60;;;8.63;;
215;SDS011;70668;48.81286795;9.14184224;2024-01-30T01:07:57;16.52;;;8.93;;
215;SDS011;70668;48.81286795;9.14184224;2024-01-30T01:10:26;19.17;;;8.10;;
215;SDS011;70668;48.81286795;9.14184224;2024-01-30T01:12:52;17.33;;;8.60;;
215;SDS011;70668;48.81286795;9.14184224;2024-01-30T01:15:21;17.70;;;8.65;;
215;SDS011;70668;48.81286795;9.14184224;2024-01-30T01:17:50;18.20;;;9.05;;
215;SDS011;70668;48.81286795;9.14184224;2024-01-30T01:20:18;17.52;;;8.80;;
215;SDS011;70668;48.81286795;9.14184224;2024-01-30T01:22:49;16.58;;;8.65;;
215;SDS011;70668;48.81286795;9.14184224;2024-01-30T01:25:18;17.58;;;8.95;;
215;SDS011;70668;48.81286795;9.14184224;2024-01-30T01:27:47;20.02;;;9.40;;
215;SDS011;70668;48.81286795;9.14184224;2024-01-30T01:30:17;16.50;;;8.80;;
215;SDS011;70668;48.81286795;9.14184224;2024-01-30T01:32:47;15.27;;;8.80;;
215;SDS011;70668;48.81286795;9.14184224;2024-01-30T01:35:20;17.65;;;8.95;;
215;SDS011;70668;48.81286795;9.14184224;2024-01-30T01:37:52;19.58;;;10.27;;
215;SDS011;70668;48.81286795;9.14184224;2024-01-30T01:40:24;19.50;;;9.85;;
215;SDS011;70668;48.81286795;9.14184224;2024-01-30T01:42:54;23.90;;;9.93;;
215;SDS011;70668;48.81286795;9.14184224;2024-01-30T01:45:23;17.38;;;8.80;;
215;SDS011;70668;48.81286795;9.14184224;2024-01-30T01:47:51;16.60;;;8.77;;
215;SDS011;70668;48.81286795;9.14184224;2024-01-30T01:50:20;19.67;;;8.45;;
215;SDS011;70668;48.81286795;9.14184224;2024-01-30T01:52:52;18.05;;;8.10;;
215;SDS011;70668;48.81286795;9.14184224;2024-01-30T01:55:22;14.70;;;8.18;;
215;SDS011;70668;48.81286795;9.14184224;2024-01-30T01:57:53;15.75;;;8.65;;
215;SDS011;70668;48.81286795;9.14184224;2024-01-30T02:00:21;16.45;;;8.02;;
215;SDS011;70668;48.81286795;9.14184224;2024-01-30T02:02:51;15.48;;;8.25;;
215;SDS011;70668;48.81286795;9.14184224;2024-01-30T02:05:21;15.18;;;7.25;;
215;SDS011;70668;48.81286795;9.14184224;2024-01-30T02:07:52;14.10;;;7.32;;
215;SDS011;70668;48.81286795;9.14184224;2024-01-30T02:10:22;14.75;;;7.80;;
215;SDS011;70668;48.81286795;9.14184224;2024-01-30T02:12:50;17.35;;;8.20;;
215;SDS011;70668;48.81286795;9.14184224;2024-01-30T02:15:18;15.82;;;8.75;;
215;SDS011;70668;48.81286795;9.14184224;2024-01-30T02:17:47;15.73;;;8.13;;
215;SDS011;70668;48.81286795;9.14184224;2024-01-30T02:20:15;13.63;;;7.70;;
215;SDS011;70668;48.81286795;9.14184224;2024-01-30T02:22:46;16.00;;;7.75;;
215;SDS011;70668;48.81286795;9.14184224;2024-01-30T02:25:16;16.30;;;8.13;;
215;SDS011;70668;48.81286795;9.14184224;2024-01-30T02:27:45;16.05;;;8.10;;
215;SDS011;70668;48.81286795;9.14184224;2024-01-30T02:30:13;14.63;;;7.90;;
215;SDS011;70668;48.81286795;9.14184224;2024-01-30T02:32:42;17.40;;;8.48;;
215;SDS011;70668;48.81286795;9.14184224;2024-01-30T02:35:10;14.98;;;8.00;;
215;SDS011;70668;48.81286795;9.14184224;2024-01-30T02:37:39;18.52;;;8.25;;
215;SDS011;70668;48.81286795;9.14184224;2024-01-30T02:40:10;15.80;;;8.07;;
215;SDS011;70668;48.81286795;9.14184224;2024-01-30T02:42:39;19.13;;;8.30;;
215;SDS011;70668;48.81286795;9.14184224;2024-01-30T02:45:08;17.13;;;8.68;;
215;SDS011;70668;48.81286795;9.14184224;2024-01-30T02:47:38;15.43;;;8.57;;
215;SDS011;70668;48.81286795;9.14184224;2024-01-30T02:50:07;15.55;;;8.50;;
215;SDS011;70668;48.81286795;9.14184224;2024-01-30T02:52:36;15.65;;;8.40;;
215;SDS011;70668;48.81286795;9.14184224;2024-01-30T02:55:05;17.05;;;8.95;;
215;SDS011;70668;48.81286795;9.14184224;2024-01-30T02:57:37;17.27;;;8.55;;
215;SDS011;70668;48.81286795;9.14184224;2024-01-30T03:00:06;14.90;;;8.38;;
215;SDS011;70668;48.81286795;9.14184224;2024-01-30T03:02:36;16.75;;;8.55;;
215;SDS011;70668;48.81286795;9.14184224;2024-01-30T03:05:05;16.55;;;9.02;;
215;SDS011;70668;48.81286795;9.14184224;2024-01-30T03:07:34;14.80;;;8.52;;
215;SDS011;70668;48.81286795;9.14184224;2024-01-30T03:10:03;17.65;;;8.40;;
215;SDS011;70668;48.81286795;9.14184224;2024-01-30T03:12:33;16.20;;;8.60;;
215;SDS011;70668;48.81286795;9.14184224;2024-01-30T03:15:04;17.75;;;8.00;;
215;SDS011;70668;48.81286795;9.14184224;2024-01-30T03:17:35;18.67;;;9.15;;
215;SDS011;70668;48.81286795;9.14184224;2024-01-30T03:20:04;18.92;;;9.70;;
215;SDS011;70668;48.81286795;9.14184224;2024-01-30T03:22:34;15.00;;;8.38;;
215;SDS011;70668;48.81286795;9.14184224;2024-01-30T03:25:03;15.80;;;8.40;;
215;SDS011;70668;48.81286795;9.14184224;2024-01-30T03:27:32;21.13;;;8.95;;
215;SDS011;70668;48.81286795;9.14184224;2024-01-30T03:30:01;17.75;;;9.52;;
215;SDS011;70668;48.81286795;9.14184224;2024-01-30T03:32:32;17.15;;;8.55;;
215;SDS011;70668;48.81286795;9.14184224;2024-01-30T03:35:01;16.08;;;8.70;;
215;SDS011;70668;48.81286795;9.14184224;2024-01-30T03:37:29;18.25;;;8.65;;
215;SDS011;70668;48.81286795;9.14184224;2024-01-30T03:39:58;15.95;;;8.30;;
215;SDS011;70668;48.81286795;9.14184224;2024-01-30T03:42:26;18.65;;;9.25;;
215;SDS011;70668;48.81286795;9.14184224;2024-01-30T03:44:55;19.15;;;8.38;;
215;SDS011;70668;48.81286795;9.14184224;2024-01-30T03:47:27;20.55;;;8.93;;
215;SDS011;70668;48.81286795;9.14184224;2024-01-30T03:49:55;16.08;;;8.45;;
215;SDS011;70668;48.81286795;9.14184224;2024-01-30T03:52:24;16.15;;;8.70;;
215;SDS011;70668;48.81286795;9.14184224;2024-01-30T03:54:52;17.50;;;8.32;;
215;SDS011;70668;48.81286795;9.14184224;2024-01-30T03:57:21;15.05;;;8.23;;
215;SDS011;70668;48.81286795;9.14184224;2024-01-30T03:59:49;18.17;;;9.20;;
215;SDS011;70668;48.81286795;9.14184224;2024-01-30T04:02:18;15.38;;;8.27;;
215;SDS011;70668;48.81286795;9.14184224;2024-01-30T04:04:49;17.30;;;8.80;;
215;SDS011;70668;48.81286795;9.14184224;2024-01-30T04:07:18;18.98;;;9.10;;
215;SDS011;70668;48.81286795;9.14184224;2024-01-30T04:09:46;16.60;;;8.60;;
215;SDS011;70668;48.81286795;9.14184224;2024-01-30T04:12:15;15.75;;;8.57;;
215;SDS011;70668;48.81286795;9.14184224;2024-01-30T04:14:43;16.92;;;8.23;;
215;SDS011;70668;48.81286795;9.14184224;2024-01-30T04:17:12;17.58;;;8.52;;
215;SDS011;70668;48.81286795;9.14184224;2024-01-30T04:19:41;17.17;;;9.10;;
215;SDS011;70668;48.81286795;9.14184224;2024-01-30T04:22:12;16.02;;;8.68;;
215;SDS011;70668;48.81286795;9.14184224;2024-01-30T04:24:40;16.88;;;8.57;;
215;SDS011;70668;48.81286795;9.14184224;2024-01-30T04:27:08;18.48;;;8.77;;
215;SDS011;70668;48.81286795;9.14184224;2024-01-30T04:29:37;16.83;;;8.85;;
215;SDS011;70668;48.81286795;9.14184224;2024-01-30T04:32:06;17.33;;;9.43;;
215;SDS011;70668;48.81286795;9.14184224;2024-01-30T04:34:35;17.63;;;9.27;;
215;SDS011;70668;48.81286795;9.14184224;2024-01-30T04:37:04;17.67;;;8.80;;
215;SDS011;70668;48.81286795;9.14184224;2024-01-30T04:39:35;24.17;;;9.75;;
215;SDS011;70668;48.81286795;9.14184224;2024-01-30T04:42:04;20.02;;;9.25;;
215;SDS011;70668;48.81286795;9.14184224;2024-01-30T04:44:33;17.17;;;9.30;;
215;SDS011;70668;48.81286795;9.14184224;2024-01-30T04:47:01;20.63;;;8.85;;
215;SDS011;70668;48.81286795;9.14184224;2024-01-30T04:49:31;20.73;;;8.98;;
215;SDS011;70668;48.81286795;9.14184224;2024-01-30T04:51:59;16.10;;;8.80;;
215;SDS011;70668;48.81286795;9.14184224;2024-01-30T04:54:28;18.77;;;9.32;;
215;SDS011;70668;48.81286795;9.14184224;2024-01-30T04:56:59;19.00;;;10.18;;
215;SDS011;70668;48.81286795;9.14184224;2024-01-30T04:59:28;15.40;;;8.98;;
215;SDS011;70668;48.81286795;9.14184224;2024-01-30T05:01:56;16.55;;;9.20;;
215;SDS011;70668;48.81286795;9.14184224;2024-01-30T05:04:24;17.45;;;9.32;;
215;SDS011;70668;48.81286795;9.14184224;2024-01-30T05:06:53;21.70;;;10.00;;
215;SDS011;70668;48.81286795;9.14184224;2024-01-30T05:09:21;17.67;;;9.35;;
215;SDS011;70668;48.81286795;9.14184224;2024-01-30T05:11:50;17.08;;;9.35;;
215;SDS011;70668;48.81286795;9.14184224;2024-01-30T05:14:21;21.05;;;9.30;;
215;SDS011;70668;48.81286795;9.14184224;2024-01-30T05:16:49;16.88;;;8.80;;
215;SDS011;70668;48.81286795;9.14184224;2024-01-30T05:19:18;19.25;;;9.45;;
215;SDS011;70668;48.81286795;9.14184224;2024-01-30T05:21:48;17.75;;;8.90;;
215;SDS011;70668;48.81286795;9.14184224;2024-01-30T05:24:16;20.50;;;9.07;;
215;SDS011;70668;48.81286795;9.14184224;2024-01-30T05:26:45;20.20;;;9.63;;
215;SDS011;70668;48.81286795;9.14184224;2024-01-30T05:29:15;18.98;;;9.43;;
215;SDS011;70668;48.81286795;9.14184224;2024-01-30T05:31:46;20.65;;;9.50;;
215;SDS011;70668;48.81286795;9.14184224;2024-01-30T05:34:14;16.83;;;9.00;;
215;SDS011;70668;48.81286795;9.14184224;2024-01-30T05:36:43;17.10;;;9.15;;
215;SDS011;70668;48.81286795;9.14184224;2024-01-30T05:39:11;17.90;;;9.30;;
215;SDS011;70668;48.81286795;9.14184224;2024-01-30T05:41:40;19.10;;;9.80;;
215;SDS011;70668;48.81286795;9.14184224;2024-01-30T05:44:08;16.55;;;9.23;;
215;SDS011;70668;48.81286795;9.14184224;2024-01-30T05:46:37;21.50;;;9.00;;
215;SDS011;70668;48.81286795;9.14184224;2024-01-30T05:49:08;18.35;;;9.45;;
215;SDS011;70668;48.81286795;9.14184224;2024-01-30T05:51:36;19.45;;;9.98;;
215;SDS011;70668;48.81286795;9.14184224;2024-01-30T05:54:04;19.38;;;9.63;;
215;SDS011;70668;48.81286795;9.14184224;2024-01-30T05:56:33;17.48;;;9.32;;
215;SDS011;70668;48.81286795;9.14184224;2024-01-30T05:59:01;18.58;;;10.20;;
215;SDS011;70668;48.81286795;9.14184224;2024-01-30T06:01:30;18.67;;;9.60;;
215;SDS011;70668;48.81286795;9.14184224;2024-01-30T06:03:59;21.58;;;10.25;;
215;SDS011;70668;48.81286795;9.14184224;2024-01-30T06:06:31;18.60;;;10.10;;
215;SDS011;70668;48.81286795;9.14184224;2024-01-30T06:08:59;22.23;;;10.10;;
215;SDS011;70668;48.81286795;9.14184224;2024-01-30T06:11:27;16.98;;;9.68;;
215;SDS011;70668;48.81286795;9.14184224;2024-01-30T06:13:56;20.02;;;10.07;;
215;SDS011;70668;48.81286795;9.14184224;2024-01-30T06:16:24;21.42;;;10.60;;
215;SDS011;70668;48.81286795;9.14184224;2024-01-30T06:18:54;18.30;;;10.50;;
215;SDS011;70668;48.81286795;9.14184224;2024-01-30T06:21:23;19.77;;;10.48;;
215;SDS011;70668;48.81286795;9.14184224;2024-01-30T06:23:54;22.27;;;11.13;;
215;SDS011;70668;48.81286795;9.14184224;2024-01-30T06:26:22;20.42;;;10.77;;
215;SDS011;70668;48.81286795;9.14184224;2024-01-30T06:28:51;21.88;;;11.18;;
215;SDS011;70668;48.81286795;9.14184224;2024-01-30T06:31:19;27.42;;;11.93;;
215;SDS011;70668;48.81286795;9.14184224;2024-01-30T06:33:48;21.08;;;11.23;;
215;SDS011;70668;48.81286795;9.14184224;2024-01-30T06:36:17;21.52;;;11.65;;
215;SDS011;70668;48.81286795;9.14184224;2024-01-30T06:38:46;26.80;;;11.60;;
215;SDS011;70668;48.81286795;9.14184224;2024-01-30T06:41:17;25.17;;;12.00;;
215;SDS011;70668;48.81286795;9.14184224;2024-01-30T06:43:45;24.23;;;11.73;;
215;SDS011;70668;48.81286795;9.14184224;2024-01-30T06:46:14;22.60;;;11.55;;
215;SDS011;70668;48.81286795;9.14184224;2024-01-30T06:48:42;21.25;;;11.35;;
215;SDS011;70668;48.81286795;9.14184224;2024-01-30T06:51:11;25.55;;;12.05;;
215;SDS011;70668;48.81286795;9.14184224;2024-01-30T06:53:39;25.65;;;11.70;;
215;SDS011;70668;48.81286795;9.14184224;2024-01-30T06:56:08;24.38;;;11.82;;
215;SDS011;70668;48.81286795;9.14184224;2024-01-30T06:58:39;23.48;;;10.95;;
215;SDS011;70668;48.81286795;9.14184224;2024-01-30T07:01:07;23.58;;;12.13;;
215;SDS011;70668;48.81286795;9.14184224;2024-01-30T07:03:37;22.45;;;12.05;;
215;SDS011;70668;48.81286795;9.14184224;2024-01-30T07:06:05;25.52;;;12.32;;
215;SDS011;70668;48.81286795;9.14184224;2024-01-30T07:08:34;23.13;;;11.07;;
215;SDS011;70668;48.81286795;9.14184224;2024-01-30T07:11:04;22.52;;;10.35;;
215;SDS011;70668;48.81286795;9.14184224;2024-01-30T07:13:34;22.98;;;11.02;;
215;SDS011;70668;48.81286795;9.14184224;2024-01-30T07:16:05;23.33;;;10.65;;
215;SDS011;70668;48.81286795;9.14184224;2024-01-30T07:18:34;19.95;;;10.40;;
215;SDS011;70668;48.81286795;9.14184224;2024-01-30T07:21:03;21.52;;;11.38;;
215;SDS011;70668;48.81286795;9.14184224;2024-01-30T07:23:32;22.10;;;11.23;;
215;SDS011;70668;48.81286795;9.14184224;2024-01-30T07:26:00;24.17;;;11.48;;
215;SDS011;70668;48.81286795;9.14184224;2024-01-30T07:28:29;24.02;;;11.70;;
215;SDS011;70668;48.81286795;9.14184224;2024-01-30T07:30:58;39.60;;;13.93;;
215;SDS011;70668;48.81286795;9.14184224;2024-01-30T07:33:29;27.65;;;12.85;;
215;SDS011;70668;48.81286795;9.14184224;2024-01-30T07:35:57;22.95;;;11.52;;
215;SDS011;70668;48.81286795;9.14184224;2024-01-30T07:38:26;23.92;;;11.13;;
215;SDS011;70668;48.81286795;9.14184224;2024-01-30T07:40:54;26.27;;;10.70;;
215;SDS011;70668;48.81286795;9.14184224;2024-01-30T07:43:22;20.75;;;10.80;;
215;SDS011;70668;48.81286795;9.14184224;2024-01-30T07:45:51;22.80;;;10.32;;
215;SDS011;70668;48.81286795;9.14184224;2024-01-30T07:48:19;27.55;;;11.15;;
215;SDS011;70668;48.81286795;9.14184224;2024-01-30T07:50:50;24.70;;;11.63;;
215;SDS011;70668;48.81286795;9.14184224;2024-01-30T07:53:19;25.80;;;11.90;;
215;SDS011;70668;48.81286795;9.14184224;2024-01-30T07:55:47;34.47;;;10.98;;
215;SDS011;70668;48.81286795;9.14184224;2024-01-30T07:58:16;19.52;;;10.25;;
215;SDS011;70668;48.81286795;9.14184224;2024-01-30T08:00:45;18.45;;;10.32;;
215;SDS011;70668;48.81286795;9.14184224;2024-01-30T08:03:13;21.85;;;11.23;;
215;SDS011;70668;48.81286795;9.14184224;2024-01-30T08:05:43;20.65;;;10.95;;
215;SDS011;70668;48.81286795;9.14184224;2024-01-30T08:08:14;21.30;;;11.38;;
215;SDS011;70668;48.81286795;9.14184224;2024-01-30T08:10:43;21.13;;;10.40;;
215;SDS011;70668;48.81286795;9.14184224;2024-01-30T08:13:11;20.35;;;10.90;;
215;SDS011;70668;48.81286795;9.14184224;2024-01-30T08:15:40;25.63;;;12.85;;
215;SDS011;70668;48.81286795;9.14184224;2024-01-30T08:18:08;16.50;;;9.05;;
215;SDS011;70668;48.81286795;9.14184224;2024-01-30T08:20:37;19.52;;;8.95;;
215;SDS011;70668;48.81286795;9.14184224;2024-01-30T08:23:05;18.40;;;10.13;;
215;SDS011;70668;48.81286795;9.14184224;2024-01-30T08:25:36;16.65;;;8.50;;
215;SDS011;70668;48.81286795;9.14184224;2024-01-30T08:28:05;24.27;;;11.27;;
215;SDS011;70668;48.81286795;9.14184224;2024-01-30T08:30:33;24.40;;;11.90;;
215;SDS011;70668;48.81286795;9.14184224;2024-01-30T08:33:04;23.92;;;11.95;;
215;SDS011;70668;48.81286795;9.14184224;2024-01-30T08:35:32;20.75;;;10.50;;
215;SDS011;70668;48.81286795;9.14184224;2024-01-30T08:38:01;23.92;;;11.40;;
215;SDS011;70668;48.81286795;9.14184224;2024-01-30T08:40:30;24.63;;;11.98;;
215;SDS011;70668;48.81286795;9.14184224;2024-01-30T08:43:01;30.80;;;11.90;;
215;SDS011;70668;48.81286795;9.14184224;2024-01-30T08:45:29;22.25;;;11.63;;
215;SDS011;70668;48.81286795;9.14184224;2024-01-30T08:47:58;21.95;;;12.05;;
215;SDS011;70668;48.81286795;9.14184224;2024-01-30T08:50:26;28.63;;;12.32;;
215;SDS011;70668;48.81286795;9.14184224;2024-01-30T08:52:55;25.58;;;12.70;;
215;SDS011;70668;48.81286795;9.14184224;2024-01-30T08:55:23;27.38;;;13.38;;
215;SDS011;70668;48.81286795;9.14184224;2024-01-30T08:57:52;22.48;;;13.05;;
215;SDS011;70668;48.81286795;9.14184224;2024-01-30T09:00:23;30.25;;;13.48;;
215;SDS011;70668;48.81286795;9.14184224;2024-01-30T09:02:52;28.63;;;13.52;;
215;SDS011;70668;48.81286795;9.14184224;2024-01-30T09:05:20;24.05;;;12.73;;
215;SDS011;70668;48.81286795;9.14184224;2024-01-30T09:07:49;25.27;;;12.70;;
215;SDS011;70668;48.81286795;9.14184224;2024-01-30T09:10:17;25.65;;;13.50;;
215;SDS011;70668;48.81286795;9.14184224;2024-01-30T09:12:45;25.10;;;12.95;;
215;SDS011;70668;48.81286795;9.14184224;2024-01-30T09:15:14;28.05;;;13.63;;
215;SDS011;70668;48.81286795;9.14184224;2024-01-30T09:17:46;25.77;;;14.30;;
215;SDS011;70668;48.81286795;9.14184224;2024-01-30T09:20:15;24.60;;;12.83;;
215;SDS011;70668;48.81286795;9.14184224;2024-01-30T09:22:45;26.10;;;14.32;;
215;SDS011;70668;48.81286795;9.14184224;2024-01-30T09:25:14;23.75;;;13.18;;
215;SDS011;70668;48.81286795;9.14184224;2024-01-30T09:27:44;24.63;;;13.67;;
215;SDS011;70668;48.81286795;9.14184224;2024-01-30T09:30:12;30.17;;;14.20;;
215;SDS011;70668;48.81286795;9.14184224;2024-01-30T09:32:41;28.23;;;14.27;;
215;SDS011;70668;48.81286795;9.14184224;2024-01-30T09:35:14;27.90;;;14.50;;
215;SDS011;70668;48.81286795;9.14184224;2024-01-30T09:37:42;27.70;;;14.23;;
215;SDS011;70668;48.81286795;9.14184224;2024-01-30T09:40:11;34.58;;;14.57;;
215;SDS011;70668;48.81286795;9.14184224;2024-01-30T09:42:44;25.70;;;13.90;;
215;SDS011;70668;48.81286795;9.14184224;2024-01-30T09:45:15;25.37;;;13.93;;
215;SDS011;70668;48.81286795;9.14184224;2024-01-30T09:47:46;34.50;;;14.13;;
215;SDS011;70668;48.81286795;9.14184224;2024-01-30T09:50:17;26.77;;;13.70;;
215;SDS011;70668;48.81286795;9.14184224;2024-01-30T09:52:47;26.30;;;13.80;;
215;SDS011;70668;48.81286795;9.14184224;2024-01-30T09:55:16;29.80;;;14.40;;
215;SDS011;70668;48.81286795;9.14184224;2024-01-30T09:57:44;28.65;;;14.57;;
215;SDS011;70668;48.81286795;9.14184224;2024-01-30T10:00:13;36.83;;;14.50;;
215;SDS011;70668;48.81286795;9.14184224;2024-01-30T10:02:42;25.40;;;14.53;;
215;SDS011;70668;48.81286795;9.14184224;2024-01-30T10:05:10;24.83;;;14.13;;
215;SDS011;70668;48.81286795;9.14184224;2024-01-30T10:07:52;31.30;;;14.73;;
215;SDS011;70668;48.81286795;9.14184224;2024-01-30T10:10:21;31.87;;;14.37;;
215;SDS011;70668;48.81286795;9.14184224;2024-01-30T10:12:50;32.90;;;14.23;;
215;SDS011;70668;48.81286795;9.14184224;2024-01-30T10:15:19;34.03;;;15.23;;
215;SDS011;70668;48.81286795;9.14184224;2024-01-30T10:17:47;52.50;;;15.10;;
215;SDS011;70668;48.81286795;9.14184224;2024-01-30T10:20:16;33.53;;;14.60;;
215;SDS011;70668;48.81286795;9.14184224;2024-01-30T10:22:47;30.00;;;15.50;;
215;SDS011;70668;48.81286795;9.14184224;2024-01-30T10:25:18;27.17;;;14.17;;
215;SDS011;70668;48.81286795;9.14184224;2024-01-30T10:27:52;30.50;;;14.63;;
215;SDS011;70668;48.81286795;9.14184224;2024-01-30T10:30:21;29.30;;;14.80;;
215;SDS011;70668;48.81286795;9.14184224;2024-01-30T10:32:49;31.80;;;15.00;;
215;SDS011;70668;48.81286795;9.14184224;2024-01-30T10:35:18;30.70;;;15.33;;
215;SDS011;70668;48.81286795;9.14184224;2024-01-30T10:37:47;33.43;;;15.70;;
215;SDS011;70668;48.81286795;9.14184224;2024-01-30T10:40:16;31.00;;;15.23;;
215;SDS011;70668;48.81286795;9.14184224;2024-01-30T10:42:49;32.50;;;15.57;;
215;SDS011;70668;48.81286795;9.14184224;2024-01-30T10:45:21;29.70;;;15.97;;
215;SDS011;70668;48.81286795;9.14184224;2024-01-30T10:47:52;31.80;;;15.40;;
215;SDS011;70668;48.81286795;9.14184224;2024-01-30T10:50:23;31.43;;;14.97;;
215;SDS011;70668;48.81286795;9.14184224;2024-01-30T10:52:53;29.03;;;14.40;;
215;SDS011;70668;48.81286795;9.14184224;2024-01-30T10:55:25;35.53;;;15.17;;
215;SDS011;70668;48.81286795;9.14184224;2024-01-30T10:57:56;32.00;;;16.50;;
215;SDS011;70668;48.81286795;9.14184224;2024-01-30T11:00:25;31.03;;;15.73;;
215;SDS011;70668;48.81286795;9.14184224;2024-01-30T11:02:53;34.30;;;15.50;;
215;SDS011;70668;48.81286795;9.14184224;2024-01-30T11:05:26;28.67;;;14.93;;
215;SDS011;70668;48.81286795;9.14184224;2024-01-30T11:07:55;31.33;;;15.37;;
215;SDS011;70668;48.81286795;9.14184224;2024-01-30T11:10:27;31.63;;;15.17;;
215;SDS011;70668;48.81286795;9.14184224;2024-01-30T11:12:56;30.73;;;16.13;;
215;SDS011;70668;48.81286795;9.14184224;2024-01-30T11:15:25;34.57;;;15.93;;
215;SDS011;70668;48.81286795;9.14184224;2024-01-30T11:17:53;37.40;;;15.60;;
215;SDS011;70668;48.81286795;9.14184224;2024-01-30T11:20:22;29.30;;;14.80;;
215;SDS011;70668;48.81286795;9.14184224;2024-01-30T11:22:55;30.87;;;15.27;;
215;SDS011;70668;48.81286795;9.14184224;2024-01-30T11:25:27;31.90;;;15.13;;
215;SDS011;70668;48.81286795;9.14184224;2024-01-30T11:27:55;28.60;;;15.10;;
215;SDS011;70668;48.81286795;9.14184224;2024-01-30T11:30:24;31.80;;;14.83;;
215;SDS011;70668;48.81286795;9.14184224;2024-01-30T11:32:58;26.57;;;14.10;;
215;SDS011;70668;48.81286795;9.14184224;2024-01-30T11:35:32;32.73;;;14.40;;
215;SDS011;70668;48.81286795;9.14184224;2024-01-30T11:38:03;32.07;;;15.30;;
215;SDS011;70668;48.81286795;9.14184224;2024-01-30T11:40:35;26.93;;;14.37;;
215;SDS011;70668;48.81286795;9.14184224;2024-01-30T11:43:05;28.40;;;16.03;;
215;SDS011;70668;48.81286795;9.14184224;2024-01-30T11:45:34;34.73;;;15.40;;
215;SDS011;70668;48.81286795;9.14184224;2024-01-30T11:48:04;32.73;;;16.70;;
215;SDS011;70668;48.81286795;9.14184224;2024-01-30T11:50:35;28.27;;;15.37;;
215;SDS011;70668;48.81286795;9.14184224;2024-01-30T11:53:06;31.43;;;15.70;;
215;SDS011;70668;48.81286795;9.14184224;2024-01-30T11:55:37;39.77;;;15.90;;
215;SDS011;70668;48.81286795;9.14184224;2024-01-30T11:58:06;31.13;;;16.10;;
215;SDS011;70668;48.81286795;9.14184224;2024-01-30T12:00:34;28.77;;;15.87;;
215;SDS011;70668;48.81286795;9.14184224;2024-01-30T12:03:03;30.60;;;15.10;;
215;SDS011;70668;48.81286795;9.14184224;2024-01-30T12:05:32;28.77;;;16.00;;
215;SDS011;70668;48.81286795;9.14184224;2024-01-30T12:08:01;31.47;;;16.67;;
215;SDS011;70668;48.81286795;9.14184224;2024-01-30T12:10:30;32.20;;;15.60;;
215;SDS011;70668;48.81286795;9.14184224;2024-01-30T12:13:01;31.70;;;15.37;;
215;SDS011;70668;48.81286795;9.14184224;2024-01-30T12:15:30;34.50;;;15.40;;
215;SDS011;70668;48.81286795;9.14184224;2024-01-30T12:18:05;27.77;;;15.87;;
215;SDS011;70668;48.81286795;9.14184224;2024-01-30T12:20:33;26.67;;;15.40;;
215;SDS011;70668;48.81286795;9.14184224;2024-01-30T12:23:02;27.23;;;15.20;;
215;SDS011;70668;48.81286795;9.14184224;2024-01-30T12:25:31;28.80;;;16.10;;
215;SDS011;70668;48.81286795;9.14184224;2024-01-30T12:28:02;31.13;;;15.67;;
215;SDS011;70668;48.81286795;9.14184224;2024-01-30T12:30:31;31.77;;;15.90;;
215;SDS011;70668;48.81286795;9.14184224;2024-01-30T12:33:00;32.63;;;15.00;;
215;SDS011;70668;48.81286795;9.14184224;2024-01-30T12:35:32;29.73;;;15.77;;
215;SDS011;70668;48.81286795;9.14184224;2024-01-30T12:38:00;31.03;;;14.10;;
215;SDS011;70668;48.81286795;9.14184224;2024-01-30T12:40:30;32.10;;;15.70;;
215;SDS011;70668;48.81286795;9.14184224;2024-01-30T12:43:04;29.53;;;15.33;;
215;SDS011;70668;48.81286795;9.14184224;2024-01-30T12:45:33;28.13;;;15.17;;
215;SDS011;70668;48.81286795;9.14184224;2024-01-30T12:48:01;36.77;;;15.00;;
215;SDS011;70668;48.81286795;9.14184224;2024-01-30T12:50:30;36.07;;;14.97;;
215;SDS011;70668;48.81286795;9.14184224;2024-01-30T12:52:58;33.73;;;14.97;;
215;SDS011;70668;48.81286795;9.14184224;2024-01-30T12:55:27;26.13;;;14.20;;
215;SDS011;70668;48.81286795;9.14184224;2024-01-30T12:57:55;31.43;;;15.10;;
215;SDS011;70668;48.81286795;9.14184224;2024-01-30T13:00:26;29.13;;;14.73;;
215;SDS011;70668;48.81286795;9.14184224;2024-01-30T13:02:55;30.20;;;15.27;;
215;SDS011;70668;48.81286795;9.14184224;2024-01-30T13:05:23;28.87;;;15.10;;